Close

Questo sito utlizza cookie. Può leggere come li usiamo nella nostra Privacy Policy.

Ronchi Tower
Ronchi Tower

From Facebook

METAR & TAF

2020/06/02 00:20 LIPQ 020020Z AUTO 05001KT 9999 NCD 15/14 Q1016
2020/06/01 18:21 TAF LIPQ 011700Z 0118/0218 VRB05KT 9999 FEW060
2020/06/01 23:50 LIPZ 012350Z 29006KT CAVOK 18/10 Q1016 NOSIG
2020/06/01 18:21 TAF LIPZ 011700Z 0118/0224 15010KT 9999 SCT060 BECMG 0118/0120 VRB04KT BECMG 0208/0210 15012KT TEMPO 0215/0218 TSRA
2020/06/02 00:20 LIPH 020020Z AUTO VRB01KT 9999 NCD 16/11 Q1016
2020/06/01 18:21 TAF LIPH 011700Z 0118/0218 VRB05KT 9999 FEW030
2020/06/02 00:20 LIRF 020020Z 09008KT CAVOK 16/14 Q1015 NOSIG
2020/06/01 18:21 TAF LIRF 011700Z 0118/0224 VRB04KT 9999 SCT030 BECMG 0208/0210 24012KT BECMG 0218/0220 VRB04KT
2020/06/02 00:20 LIML 020020Z AUTO VRB02KT 9999 BKN095/// 19/13 Q1016
2020/06/01 18:21 TAF LIML 011700Z 0118/0218 VRB05KT 9999 FEW050
2020/06/02 00:20 EDDM 020020Z VRB01KT CAVOK 08/07 Q1019 NOSIG
2020/06/01 18:27 TAF EDDM 011700Z 0118/0224 07005KT CAVOK BECMG 0118/0120 VRB03KT BECMG 0206/0208 05005KT BECMG 0217/0219 VRB03KT
2020/06/02 00:20 EGSS 020020Z AUTO 34002KT 9999 NCD 11/09 Q1023
2020/06/01 18:09 TAF EGSS 011656Z 0118/0224 06010KT CAVOK BECMG 0122/0201 36006KT TEMPO 0201/0207 7000 PROB40 0202/0207 4000 BR BKN003
2020/06/02 00:20 EDDF 020020Z 01009KT CAVOK 18/07 Q1019 NOSIG
2020/06/01 18:27 TAF TAF EDDF 011700Z 0118/0224 04007KT CAVOK BECMG 0215/0218 10004KT

FlightRadar24

Radar Meteo

Traffic data

Agosto 2018

Passeggeri: 63892-12,9% (rank: 23)
Nazionali 34490 -19,8%
Internazionali 29193 -3,0%

Movimenti: 1307+11,7% (rank: 24)
Tot commerciale 556 -7,2%
Aviazione generale 751 +31,5%

Cargo (tons): 20,6+62,5% (rank: 21)

Gennaio - Agosto 2018

Passeggeri: 507438-3,5% (rank: 23)
Nazionali 322655 -4,9%
Internazionali 182927 -0,7%

Movimenti: 10366-4,25 (rank: 22)
Tot commerciale 5328 -11,0%
Aviazione generale 5038 +4,2%

Cargo (tons): 299,2+61,9% (rank: 20)

Photo

Boeing 737-800 BBJ2
Boeing 737-800 BBJ2
Distinct views: 8
Robinson R22 Beta II
Robinson R22 Beta II
Distinct views: 35
Douglas DC-6B
Douglas DC-6B
Distinct views: 166
Airbus A340-600
Airbus A340-600
Total views: 2651